Weather at ADNOC Upper Zakum West Island Heliport

Public forecast

Using degrees Celsius for public forecast. Weather courtesy of forecast.io.

Closest aviation weather report (METAR) to ADNOC Upper Zakum West Island Heliport

Closest report is Al Bateen Executive Airport, 57.8 nm (107.1 km) ESE.

2023/03/26 02:00 (retrieved 59 minutes ago)

OMAD 260200Z 10002KT CAVOK 19/17 Q1011 NOSIG

Closest aviation forecast (TAF) to ADNOC Upper Zakum West Island Heliport

Forecast is more than 6 hours old.

Closest forecast is Hamad International Airport, 106.1 nm (196.5 km) WNW.

2023/03/25 18:00 (retrieved 9 hours ago)

TAF OTHH 251701Z 2518/2624 13010KT CAVOK TEMPO 2612/2624 07012KT PROB40 TEMPO 2614/2624 01018KT 7000 -RA FEW050 BKN120 PROB30 TEMPO 2620/2624 5000 SHRA FEW050CB